Nearby METAR Reports

 

KVTA - Newark, Ohio, USA
Distance from station: SE 2mi, 3km
Updated: 10/20/2017 11:54pm
Clear
Clear
 Wind from calm
Wind: Calm
Temperature: 46°F , 8°C
Dew Point: 43°F , 6°C
Humidity: 87%
Barometer: 30.23 inHg , 1023.7 hPa
Clouds: Clear
Visibility: 10 miles , 16 km
2017/10/21 03:54 KVTA 210354Z AUTO 00000KT 10SM CLR 08/06 A3023 RMK AO2 SLP236 T00780056
K4I3 - Mt Vernon/Knox, Ohio, USA
Distance from station: N 21mi, 33km
Updated: 10/21/2017 12:27am
Clear
Clear
 Wind from calm
Wind: Calm
Temperature: 54°F , 12°C
Dew Point: 43°F , 6°C
Humidity: 67%
Barometer: 30.24 inHg , 1024 hPa
Clouds: Clear
Visibility: 10 miles , 16 km
2017/10/21 04:27 K4I3 210427Z AUTO 00000KT 10SM CLR 12/06 A3024 RMK AO2
 
KCMH - Columbus, Ohio, USA
Distance from station: W 21mi, 34km
Updated: 10/20/2017 11:51pm
Few Clouds
Few Clouds
 Wind from SE
Wind: SE 5 mph , 7 km/h
Temperature: 57°F , 14°C
Dew Point: 43°F , 6°C
Humidity: 59%
Barometer: 30.21 inHg , 1023 hPa
Clouds: Few Clouds
Visibility: 10 miles , 16 km
Cloud details: Few Clouds 25000 ft
2017/10/21 03:51 KCMH 210351Z 13004KT 10SM FEW250 14/06 A3021 RMK AO2 SLP229 T01440061
KLHQ - Lancaster, Ohio, USA
Distance from station: SSW 22mi, 36km
Updated: 10/20/2017 11:53pm
Clear
Clear
 Wind from calm
Wind: Calm
Temperature: 45°F , 7°C
Dew Point: 43°F , 6°C
Humidity: 93%
Barometer: 30.23 inHg , 1023.7 hPa
Clouds: Clear
Visibility: 10 miles , 16 km
2017/10/21 03:53 KLHQ 210353Z AUTO 00000KT 10SM CLR 07/06 A3023 RMK AO2 SLP237 T00720061
 
KLCK - Rickenbacker Ang, Ohio, USA
Distance from station: SW 27mi, 44km
Updated: 10/21/2017 12:35am
Clear
Clear
 Wind from calm
Wind: Calm
Temperature: 52°F , 11°C
Dew Point: 45°F , 7°C
Humidity: 77%
Barometer: 30.21 inHg , 1023 hPa
Clouds: Clear
Visibility: 10 miles , 16 km
2017/10/21 04:35 KLCK 210435Z AUTO 00000KT 10SM CLR 11/07 A3021 RMK AO2 T01090067 PWINO
KOSU - Columbus/St Univ, Ohio, USA
Distance from station: W 32mi, 51km
Updated: 10/20/2017 11:53pm
Clear
Clear
 Wind from calm
Wind: Calm
Temperature: 55°F , 13°C
Dew Point: 43°F , 6°C
Humidity: 63%
Barometer: 30.21 inHg , 1023 hPa
Clouds: Clear
Visibility: 10 miles , 16 km
2017/10/21 03:53 KOSU 210353Z AUTO 00000KT 10SM CLR 13/06 A3021 RMK AO2 SLP230 T01330061
 
KZZV - Zanesville, Ohio, USA
Distance from station: E 32mi, 51km
Updated: 10/20/2017 11:53pm
Clear
Clear
 Wind from calm
Wind: Calm
Temperature: 48°F , 9°C
Dew Point: 45°F , 7°C
Humidity: 87%
Barometer: 30.24 inHg , 1024 hPa
Clouds: Clear
Visibility: 10 miles , 16 km
2017/10/21 03:53 KZZV 210353Z AUTO 00000KT 10SM CLR 09/07 A3024 RMK AO2 SLP240 T00890067
KTZR - Columbus/Bolton, Ohio, USA
Distance from station: WSW 36mi, 57km
Updated: 10/21/2017 12:35am
Clear
Clear
 Wind from S
Wind: S 5 mph , 7 km/h
Temperature: 54°F , 12°C
Dew Point: 45°F , 7°C
Humidity: 72%
Barometer: 30.22 inHg , 1023.4 hPa
Clouds: Clear
Visibility: 10 miles , 16 km
2017/10/21 04:35 KTZR 210435Z AUTO 18004KT 10SM CLR 12/07 A3022 RMK AO2 T01220065
 
KDLZ - Delaware, Ohio, USA
Distance from station: WNW 37mi, 60km
Updated: 10/21/2017 12:36am
Clear
Clear
 Wind from calm
Wind: Calm
Temperature: 54°F , 12°C
Dew Point: 41°F , 5°C
Humidity: 63%
Barometer: 30.22 inHg , 1023.4 hPa
Clouds: Clear
Visibility: 10 miles , 16 km
2017/10/21 04:36 KDLZ 210436Z AUTO 00000KT 10SM CLR 12/05 A3022 RMK AO2
KMRT - Marysville, Ohio, USA
Distance from station: WNW 47mi, 76km
Updated: 10/21/2017 12:34am
Clear
Clear
 Wind from S
Wind: S 6 mph , 9 km/h
Temperature: 54°F , 12°C
Dew Point: 45°F , 7°C
Humidity: 72%
Barometer: 30.22 inHg , 1023.4 hPa
Clouds: Clear
Visibility: 10 miles , 16 km
2017/10/21 04:34 KMRT 210434Z AUTO 19005KT 10SM CLR 12/07 A3022 RMK AO2 T01200069
 
KMNN - Marion, Ohio, USA
Distance from station: NW 50mi, 81km
Updated: 10/20/2017 11:53pm
Clear
Clear
 Wind from S
Wind: S 9 mph , 15 km/h
Temperature: 55°F , 13°C
Dew Point: 39°F , 4°C
Humidity: 55%
Barometer: 30.21 inHg , 1023 hPa
Clouds: Clear
Visibility: 10 miles , 16 km
2017/10/21 03:53 KMNN 210353Z AUTO 17008KT 10SM CLR 13/04 A3021 RMK AO2 SLP230 T01280039